createdAt,value
2019-01-24T00:01:58.493Z,8.43
2019-01-24T00:05:59.589Z,8.37
2019-01-24T00:10:03.527Z,9.10
2019-01-24T00:14:05.640Z,8.80
2019-01-24T00:18:06.687Z,8.73
2019-01-24T00:22:08.000Z,9.37
2019-01-24T00:26:09.412Z,9.47
2019-01-24T00:30:11.795Z,8.57
2019-01-24T00:34:12.764Z,9.47
2019-01-24T00:38:13.982Z,8.83
2019-01-24T00:42:15.451Z,8.63
2019-01-24T00:46:16.914Z,8.43
2019-01-24T00:50:18.053Z,7.40
2019-01-24T00:54:19.203Z,6.37
2019-01-24T00:58:20.901Z,5.20
2019-01-24T01:02:22.079Z,4.63
2019-01-24T01:06:23.063Z,5.33
2019-01-24T01:10:24.095Z,4.53
2019-01-24T01:14:25.612Z,4.77
2019-01-24T01:18:27.177Z,4.33
2019-01-24T01:22:28.846Z,4.67
2019-01-24T01:26:30.142Z,4.00
2019-01-24T01:30:32.092Z,3.70
2019-01-24T01:34:36.468Z,4.40
2019-01-24T01:38:37.609Z,3.27
2019-01-24T01:42:38.671Z,3.80
2019-01-24T01:46:40.155Z,3.90
2019-01-24T01:50:42.259Z,3.83
2019-01-24T01:54:43.193Z,3.80
2019-01-24T01:58:44.787Z,3.17
2019-01-24T02:02:46.335Z,3.37
2019-01-24T02:06:47.653Z,3.27
2019-01-24T02:10:49.421Z,3.20
2019-01-24T02:14:51.845Z,3.40
2019-01-24T02:18:53.290Z,2.93
2019-01-24T02:22:54.378Z,2.73
2019-01-24T02:26:56.037Z,2.63
2019-01-24T02:30:57.823Z,2.50
2019-01-24T02:34:59.025Z,1.83
2019-01-24T02:39:00.240Z,1.70
2019-01-24T02:43:02.962Z,1.90
2019-01-24T02:47:04.243Z,2.40
2019-01-24T02:51:05.355Z,2.00
2019-01-24T02:55:07.211Z,2.30
2019-01-24T02:59:08.340Z,1.97
2019-01-24T03:03:09.516Z,2.47
2019-01-24T03:07:10.922Z,1.97
2019-01-24T03:11:12.505Z,1.90
2019-01-24T03:15:15.482Z,1.43
2019-01-24T03:19:16.762Z,1.57
2019-01-24T03:23:18.691Z,1.87
2019-01-24T03:27:20.521Z,1.60
2019-01-24T03:31:22.669Z,1.40
2019-01-24T03:35:26.274Z,2.00
2019-01-24T03:39:27.750Z,1.57
2019-01-24T03:43:29.044Z,0.97
2019-01-24T03:47:30.610Z,0.90
2019-01-24T03:51:32.178Z,1.13
2019-01-24T03:55:33.459Z,1.13
2019-01-24T03:59:34.807Z,1.23
2019-01-24T04:03:36.400Z,1.60
2019-01-24T04:07:39.161Z,1.10
2019-01-24T04:11:42.405Z,1.10
2019-01-24T04:15:43.693Z,1.20
2019-01-24T04:19:45.789Z,1.23
2019-01-24T04:23:46.961Z,1.30
2019-01-24T04:27:47.939Z,0.87
2019-01-24T04:31:49.310Z,1.23
2019-01-24T04:35:50.867Z,1.23
2019-01-24T04:39:52.919Z,1.50
2019-01-24T04:43:54.520Z,1.23
2019-01-24T04:47:58.093Z,1.47
2019-01-24T04:51:59.953Z,1.60
2019-01-24T04:56:01.338Z,1.37
2019-01-24T05:00:03.228Z,1.80
2019-01-24T05:04:04.874Z,1.30
2019-01-24T05:08:06.388Z,1.70
2019-01-24T05:12:08.902Z,1.83
2019-01-24T05:16:10.196Z,1.43
2019-01-24T05:20:15.422Z,1.67
2019-01-24T05:24:16.921Z,1.20
2019-01-24T05:28:18.595Z,1.90
2019-01-24T05:32:25.686Z,1.70
2019-01-24T05:36:27.033Z,1.40
2019-01-24T05:40:28.412Z,1.30
2019-01-24T05:44:29.652Z,1.80
2019-01-24T05:48:30.847Z,1.50
2019-01-24T05:52:32.289Z,1.43
2019-01-24T05:56:34.058Z,1.30
2019-01-24T06:00:41.179Z,1.20
2019-01-24T06:04:42.489Z,0.83
2019-01-24T06:08:44.763Z,1.23
2019-01-24T06:12:46.118Z,1.37
2019-01-24T06:16:47.383Z,0.70
2019-01-24T06:20:49.302Z,1.93
2019-01-24T06:24:50.889Z,1.00
2019-01-24T06:28:52.275Z,1.50
2019-01-24T06:32:53.935Z,1.40
2019-01-24T06:36:55.982Z,1.50
2019-01-24T06:40:57.200Z,1.30
2019-01-24T06:44:58.446Z,1.43
2019-01-24T06:48:59.654Z,1.00
2019-01-24T06:53:00.762Z,1.43
2019-01-24T06:57:01.816Z,1.37
2019-01-24T07:01:02.968Z,1.43
2019-01-24T07:05:04.181Z,0.90
2019-01-24T07:09:08.038Z,1.47
2019-01-24T07:13:10.305Z,1.50
2019-01-24T07:17:13.449Z,1.43
2019-01-24T07:21:14.849Z,1.47
2019-01-24T07:25:18.775Z,1.27
2019-01-24T07:29:20.062Z,1.33
2019-01-24T07:33:21.473Z,0.93
2019-01-24T07:37:22.827Z,0.10
2019-01-24T07:41:24.694Z,1.10
2019-01-24T07:45:32.193Z,1.40
2019-01-24T07:49:33.876Z,1.57
2019-01-24T07:53:35.347Z,1.23
2019-01-24T07:57:36.524Z,1.93
2019-01-24T08:01:37.871Z,1.33
2019-01-24T08:05:39.283Z,1.30
2019-01-24T08:09:40.998Z,1.40
2019-01-24T08:13:42.179Z,0.90
2019-01-24T08:17:43.472Z,1.40
2019-01-24T08:21:46.450Z,1.33
2019-01-24T08:25:47.702Z,1.40
2019-01-24T08:29:49.055Z,1.63
2019-01-24T08:33:50.896Z,1.37
2019-01-24T08:37:52.095Z,0.97
2019-01-24T08:41:53.864Z,1.23
2019-01-24T08:45:55.003Z,0.93
2019-01-24T08:49:57.053Z,1.30
2019-01-24T08:53:58.254Z,0.80
2019-01-24T08:57:59.479Z,1.60
2019-01-24T09:02:00.766Z,1.10
2019-01-24T09:06:02.221Z,1.03
2019-01-24T09:10:03.481Z,1.63
2019-01-24T09:14:04.652Z,1.90
2019-01-24T09:18:07.690Z,1.40
2019-01-24T09:22:08.974Z,0.90
2019-01-24T09:26:11.558Z,1.30
2019-01-24T09:30:16.034Z,0.77
2019-01-24T09:34:17.190Z,1.53
2019-01-24T09:38:18.410Z,1.23
2019-01-24T09:42:19.577Z,1.13
2019-01-24T09:46:20.662Z,1.20
2019-01-24T09:50:23.552Z,1.73
2019-01-24T09:54:24.788Z,1.37
2019-01-24T09:58:26.038Z,1.00
2019-01-24T10:02:27.254Z,1.03
2019-01-24T10:06:28.585Z,0.90
2019-01-24T10:10:29.802Z,0.83
2019-01-24T10:14:31.051Z,0.93
2019-01-24T10:18:32.366Z,1.50
2019-01-24T10:22:33.793Z,1.77
2019-01-24T10:26:35.087Z,1.40
2019-01-24T10:30:42.376Z,1.70
2019-01-24T10:34:39.445Z,1.53
2019-01-24T10:38:40.584Z,1.33
2019-01-24T10:42:41.912Z,2.13
2019-01-24T10:46:43.161Z,1.50
2019-01-24T10:50:44.604Z,1.30
2019-01-24T10:54:45.814Z,1.53
2019-01-24T10:58:47.010Z,1.73
2019-01-24T11:02:48.334Z,1.60
2019-01-24T11:06:50.090Z,1.40
2019-01-24T11:10:51.675Z,1.33
2019-01-24T11:14:53.081Z,1.23
2019-01-24T11:18:54.278Z,1.60
2019-01-24T11:22:55.534Z,1.60
2019-01-24T11:26:56.848Z,1.20
2019-01-24T11:30:59.219Z,0.87
2019-01-24T11:35:01.725Z,1.50
2019-01-24T11:39:03.731Z,1.20
2019-01-24T11:43:05.220Z,1.00
2019-01-24T11:47:06.669Z,1.07
2019-01-24T11:51:07.827Z,1.27
2019-01-24T11:55:09.974Z,0.97
2019-01-24T11:59:11.716Z,1.47
2019-01-24T12:03:13.841Z,1.20
2019-01-24T12:07:15.035Z,1.10
2019-01-24T12:11:16.096Z,1.37
2019-01-24T12:15:19.080Z,1.17
2019-01-24T12:19:20.389Z,0.83
2019-01-24T12:23:21.650Z,1.30
2019-01-24T12:27:23.014Z,1.30
2019-01-24T12:31:24.264Z,1.53
2019-01-24T12:35:25.302Z,1.17
2019-01-24T12:39:26.457Z,1.07
2019-01-24T12:43:27.524Z,1.20
2019-01-24T12:47:28.533Z,1.07
2019-01-24T12:51:29.571Z,1.13
2019-01-24T12:55:30.531Z,0.97
2019-01-24T12:59:31.598Z,1.27
2019-01-24T13:03:32.568Z,1.27
2019-01-24T13:07:33.597Z,2.03
2019-01-24T13:11:34.594Z,1.73
2019-01-24T13:15:35.759Z,0.67
2019-01-24T13:19:36.760Z,1.40
2019-01-24T13:23:37.811Z,1.73
2019-01-24T13:27:38.807Z,1.17
2019-01-24T13:31:39.874Z,1.77
2019-01-24T13:35:40.856Z,1.50
2019-01-24T13:39:42.980Z,2.10
2019-01-24T13:43:44.253Z,1.50
2019-01-24T13:47:45.358Z,2.00
2019-01-24T13:51:46.377Z,1.53
2019-01-24T13:55:47.392Z,1.33
2019-01-24T13:59:48.410Z,1.60
2019-01-24T14:04:05.622Z,1.20
2019-01-24T14:08:06.669Z,1.40
2019-01-24T14:12:07.751Z,3.23
2019-01-24T14:16:08.813Z,1.80
2019-01-24T14:20:12.728Z,0.60
2019-01-24T14:24:13.673Z,2.47
2019-01-24T14:28:14.740Z,2.20
2019-01-24T14:32:15.749Z,2.07
2019-01-24T14:36:16.809Z,1.60
2019-01-24T14:40:18.847Z,2.10
2019-01-24T14:44:19.853Z,2.40
2019-01-24T14:48:21.320Z,2.93
2019-01-24T14:52:22.727Z,2.70
2019-01-24T14:56:23.700Z,3.37
2019-01-24T15:00:27.733Z,13.83
2019-01-24T15:04:28.838Z,3.43
2019-01-24T15:08:30.168Z,4.30
2019-01-24T15:12:31.443Z,4.13
2019-01-24T15:16:32.747Z,5.07
2019-01-24T15:20:34.003Z,4.87
2019-01-24T15:24:35.348Z,3.13
2019-01-24T15:28:36.470Z,3.33
2019-01-24T15:32:37.829Z,4.40
2019-01-24T15:36:40.749Z,3.77
2019-01-24T15:40:42.091Z,1.87
2019-01-24T15:44:43.367Z,1.70
2019-01-24T15:48:44.745Z,2.07
2019-01-24T15:52:46.490Z,1.90
2019-01-24T15:56:47.907Z,2.97
2019-01-24T16:00:48.884Z,1.53
2019-01-24T16:04:49.983Z,2.20
2019-01-24T16:08:50.977Z,4.60
2019-01-24T16:12:52.098Z,2.87
2019-01-24T16:16:53.121Z,3.27
2019-01-24T16:20:54.230Z,3.57
2019-01-24T16:24:55.256Z,4.00
2019-01-24T16:28:56.330Z,1.63
2019-01-24T16:32:57.414Z,3.33
2019-01-24T16:36:58.509Z,3.20
2019-01-24T16:40:59.466Z,3.70
2019-01-24T16:45:00.546Z,2.50
2019-01-24T16:49:01.541Z,1.90
2019-01-24T16:53:02.555Z,2.80
2019-01-24T16:57:04.833Z,2.20
2019-01-24T17:01:21.326Z,2.43
2019-01-24T17:05:22.450Z,2.40
2019-01-24T17:09:26.880Z,2.63
2019-01-24T17:13:28.300Z,2.47
2019-01-24T17:17:30.411Z,3.17
2019-01-24T17:21:31.922Z,2.67
2019-01-24T17:25:33.823Z,4.37
2019-01-24T17:29:35.790Z,3.60
2019-01-24T17:33:37.780Z,17.43
2019-01-24T17:37:40.316Z,6.40
2019-01-24T17:41:41.380Z,3.77
2019-01-24T17:45:42.414Z,2.83
2019-01-24T17:49:43.955Z,2.20
2019-01-24T17:53:45.309Z,2.40
2019-01-24T17:57:46.405Z,2.90
2019-01-24T18:01:48.098Z,2.93
2019-01-24T18:05:49.211Z,2.87
2019-01-24T18:09:50.225Z,3.07
2019-01-24T18:13:51.330Z,2.13
2019-01-24T18:17:52.345Z,2.90
2019-01-24T18:21:53.471Z,2.73
2019-01-24T18:25:54.498Z,2.37
2019-01-24T18:29:55.612Z,3.00
2019-01-24T18:33:56.673Z,2.83
2019-01-24T18:37:58.370Z,3.03
2019-01-24T18:42:12.793Z,2.87
2019-01-24T18:46:14.278Z,2.80
2019-01-24T18:50:18.722Z,2.77
2019-01-24T18:54:20.885Z,3.00
2019-01-24T18:58:22.450Z,2.80
2019-01-24T19:02:23.777Z,3.30
2019-01-24T19:06:24.993Z,1.20
2019-01-24T19:10:26.338Z,2.67
2019-01-24T19:14:27.938Z,2.60
2019-01-24T19:18:29.303Z,2.47
2019-01-24T19:22:32.841Z,2.63
2019-01-24T19:26:34.199Z,3.73
2019-01-24T19:30:35.287Z,3.37
2019-01-24T19:34:36.981Z,2.63
2019-01-24T19:38:38.021Z,3.00
2019-01-24T19:42:39.734Z,3.40
2019-01-24T19:46:41.367Z,1.63
2019-01-24T19:50:42.442Z,3.07
2019-01-24T19:54:44.752Z,2.77
2019-01-24T19:58:46.386Z,3.60
2019-01-24T20:02:47.461Z,3.20
2019-01-24T20:06:49.293Z,2.60
2019-01-24T20:10:50.484Z,2.87
2019-01-24T20:14:51.486Z,2.67
2019-01-24T20:18:52.485Z,2.90
2019-01-24T20:22:54.105Z,2.67
2019-01-24T20:26:55.130Z,2.73
2019-01-24T20:30:56.354Z,2.70
2019-01-24T20:34:57.358Z,2.70
2019-01-24T20:38:58.479Z,2.63
2019-01-24T20:43:00.015Z,2.87
2019-01-24T20:47:01.114Z,3.17
2019-01-24T20:51:02.318Z,3.13
2019-01-24T20:55:04.429Z,2.87
2019-01-24T20:59:06.632Z,3.00
2019-01-24T21:03:08.972Z,3.83
2019-01-24T21:07:10.559Z,3.07
2019-01-24T21:11:12.679Z,3.17
2019-01-24T21:15:15.169Z,3.00
2019-01-24T21:19:16.211Z,3.23
2019-01-24T21:23:17.398Z,3.23
2019-01-24T21:27:18.919Z,3.40
2019-01-24T21:31:19.899Z,3.37
2019-01-24T21:35:21.763Z,2.80
2019-01-24T21:39:22.945Z,3.17
2019-01-24T21:43:24.675Z,3.53
2019-01-24T21:47:26.202Z,2.77
2019-01-24T21:51:27.525Z,2.83
2019-01-24T21:55:29.393Z,3.77
2019-01-24T21:59:30.701Z,2.60
2019-01-24T22:03:31.886Z,3.07
2019-01-24T22:07:33.842Z,2.83
2019-01-24T22:11:35.019Z,2.77
2019-01-24T22:15:36.052Z,3.07
2019-01-24T22:19:37.459Z,2.90
2019-01-24T22:23:38.495Z,3.00
2019-01-24T22:27:39.443Z,3.30
2019-01-24T22:31:40.458Z,2.90
2019-01-24T22:35:41.439Z,3.00
2019-01-24T22:39:43.060Z,1.87
2019-01-24T22:43:44.592Z,3.00
2019-01-24T22:47:45.778Z,3.30
2019-01-24T22:51:46.771Z,3.27
2019-01-24T22:55:48.328Z,2.63
2019-01-24T22:59:49.287Z,3.20
2019-01-24T23:04:04.702Z,3.00
2019-01-24T23:08:07.422Z,3.10
2019-01-24T23:12:09.794Z,2.47
2019-01-24T23:16:11.203Z,3.20
2019-01-24T23:20:12.266Z,2.87
2019-01-24T23:24:14.175Z,3.50
2019-01-24T23:28:15.441Z,3.60
2019-01-24T23:32:17.113Z,2.87
2019-01-24T23:36:18.810Z,2.60
2019-01-24T23:40:21.256Z,3.03
2019-01-24T23:44:22.806Z,3.13
2019-01-24T23:48:24.199Z,3.20
2019-01-24T23:52:25.275Z,3.00
2019-01-24T23:56:26.785Z,2.90
